sensor_id;sensor_type;location;lat;lon;timestamp;P1;durP1;ratioP1;P2;durP2;ratioP2
2728;SDS011;1372;47.956;7.830;2022-07-23T00:00:06;8.23;;;7.63;;
2728;SDS011;1372;47.956;7.830;2022-07-23T00:02:56;8.37;;;7.67;;
2728;SDS011;1372;47.956;7.830;2022-07-23T00:05:25;8.00;;;7.40;;
2728;SDS011;1372;47.956;7.830;2022-07-23T00:07:53;9.30;;;8.47;;
2728;SDS011;1372;47.956;7.830;2022-07-23T00:10:25;9.03;;;8.33;;
2728;SDS011;1372;47.956;7.830;2022-07-23T00:12:53;8.90;;;8.20;;
2728;SDS011;1372;47.956;7.830;2022-07-23T00:15:22;9.13;;;8.43;;
2728;SDS011;1372;47.956;7.830;2022-07-23T00:17:51;8.87;;;8.00;;
2728;SDS011;1372;47.956;7.830;2022-07-23T00:20:20;8.60;;;7.90;;
2728;SDS011;1372;47.956;7.830;2022-07-23T00:22:49;8.23;;;7.60;;
2728;SDS011;1372;47.956;7.830;2022-07-23T00:25:19;8.10;;;7.43;;
2728;SDS011;1372;47.956;7.830;2022-07-23T00:27:59;8.07;;;7.47;;
2728;SDS011;1372;47.956;7.830;2022-07-23T00:30:29;7.50;;;6.90;;
2728;SDS011;1372;47.956;7.830;2022-07-23T00:33:00;7.87;;;7.07;;
2728;SDS011;1372;47.956;7.830;2022-07-23T00:35:32;7.90;;;7.00;;
2728;SDS011;1372;47.956;7.830;2022-07-23T00:38:02;7.30;;;6.70;;
2728;SDS011;1372;47.956;7.830;2022-07-23T00:40:33;7.67;;;7.07;;
2728;SDS011;1372;47.956;7.830;2022-07-23T00:43:24;7.57;;;7.00;;
2728;SDS011;1372;47.956;7.830;2022-07-23T00:45:53;7.23;;;6.73;;
2728;SDS011;1372;47.956;7.830;2022-07-23T00:48:21;7.60;;;6.90;;
2728;SDS011;1372;47.956;7.830;2022-07-23T00:50:50;7.53;;;6.90;;
2728;SDS011;1372;47.956;7.830;2022-07-23T00:53:19;7.80;;;7.17;;
2728;SDS011;1372;47.956;7.830;2022-07-23T00:55:48;6.80;;;6.20;;
2728;SDS011;1372;47.956;7.830;2022-07-23T00:58:17;7.53;;;6.83;;
2728;SDS011;1372;47.956;7.830;2022-07-23T01:01:08;7.70;;;7.10;;
2728;SDS011;1372;47.956;7.830;2022-07-23T01:03:37;7.30;;;6.60;;
2728;SDS011;1372;47.956;7.830;2022-07-23T01:06:05;7.37;;;6.77;;
2728;SDS011;1372;47.956;7.830;2022-07-23T01:08:54;7.87;;;7.23;;
2728;SDS011;1372;47.956;7.830;2022-07-23T01:11:43;6.73;;;6.23;;
2728;SDS011;1372;47.956;7.830;2022-07-23T01:14:13;8.00;;;7.30;;
2728;SDS011;1372;47.956;7.830;2022-07-23T01:16:45;7.83;;;7.23;;
2728;SDS011;1372;47.956;7.830;2022-07-23T01:19:16;7.63;;;6.93;;
2728;SDS011;1372;47.956;7.830;2022-07-23T01:21:46;7.60;;;6.90;;
2728;SDS011;1372;47.956;7.830;2022-07-23T01:24:19;8.53;;;7.93;;
2728;SDS011;1372;47.956;7.830;2022-07-23T01:26:47;7.53;;;6.93;;
2728;SDS011;1372;47.956;7.830;2022-07-23T01:29:18;8.10;;;7.40;;
2728;SDS011;1372;47.956;7.830;2022-07-23T01:31:47;8.33;;;7.63;;
2728;SDS011;1372;47.956;7.830;2022-07-23T01:34:16;7.80;;;7.10;;
2728;SDS011;1372;47.956;7.830;2022-07-23T01:36:47;7.80;;;7.20;;
2728;SDS011;1372;47.956;7.830;2022-07-23T01:39:37;9.50;;;8.07;;
2728;SDS011;1372;47.956;7.830;2022-07-23T01:42:06;8.60;;;7.80;;
2728;SDS011;1372;47.956;7.830;2022-07-23T01:44:37;9.00;;;8.20;;
2728;SDS011;1372;47.956;7.830;2022-07-23T01:47:25;9.80;;;8.90;;
2728;SDS011;1372;47.956;7.830;2022-07-23T01:49:54;8.73;;;7.93;;
2728;SDS011;1372;47.956;7.830;2022-07-23T01:52:23;9.77;;;8.90;;
2728;SDS011;1372;47.956;7.830;2022-07-23T01:54:53;9.07;;;8.20;;
2728;SDS011;1372;47.956;7.830;2022-07-23T01:57:41;9.13;;;8.23;;
2728;SDS011;1372;47.956;7.830;2022-07-23T02:00:10;8.70;;;8.00;;
2728;SDS011;1372;47.956;7.830;2022-07-23T02:02:40;8.97;;;8.27;;
2728;SDS011;1372;47.956;7.830;2022-07-23T02:05:29;9.70;;;8.87;;
2728;SDS011;1372;47.956;7.830;2022-07-23T02:07:58;8.80;;;8.07;;
2728;SDS011;1372;47.956;7.830;2022-07-23T02:10:28;9.70;;;8.73;;
2728;SDS011;1372;47.956;7.830;2022-07-23T02:12:59;8.77;;;8.10;;
2728;SDS011;1372;47.956;7.830;2022-07-23T02:15:28;9.83;;;9.03;;
2728;SDS011;1372;47.956;7.830;2022-07-23T02:17:57;9.53;;;8.73;;
2728;SDS011;1372;47.956;7.830;2022-07-23T02:20:33;10.60;;;9.50;;
2728;SDS011;1372;47.956;7.830;2022-07-23T02:23:05;11.10;;;9.67;;
2728;SDS011;1372;47.956;7.830;2022-07-23T02:25:35;10.07;;;9.17;;
2728;SDS011;1372;47.956;7.830;2022-07-23T02:28:04;9.77;;;8.87;;
2728;SDS011;1372;47.956;7.830;2022-07-23T02:30:33;10.30;;;9.43;;
2728;SDS011;1372;47.956;7.830;2022-07-23T02:33:02;9.80;;;9.00;;
2728;SDS011;1372;47.956;7.830;2022-07-23T02:35:51;8.97;;;8.27;;
2728;SDS011;1372;47.956;7.830;2022-07-23T02:38:20;9.30;;;8.40;;
2728;SDS011;1372;47.956;7.830;2022-07-23T02:41:10;9.03;;;8.23;;
2728;SDS011;1372;47.956;7.830;2022-07-23T02:43:39;9.60;;;8.60;;
2728;SDS011;1372;47.956;7.830;2022-07-23T02:46:07;8.57;;;7.87;;
2728;SDS011;1372;47.956;7.830;2022-07-23T02:48:36;9.57;;;8.67;;
2728;SDS011;1372;47.956;7.830;2022-07-23T02:51:06;9.97;;;9.07;;
2728;SDS011;1372;47.956;7.830;2022-07-23T02:53:36;9.50;;;8.63;;
2728;SDS011;1372;47.956;7.830;2022-07-23T02:56:05;9.30;;;8.40;;
2728;SDS011;1372;47.956;7.830;2022-07-23T02:58:35;9.97;;;8.97;;
2728;SDS011;1372;47.956;7.830;2022-07-23T03:01:04;9.20;;;8.40;;
2728;SDS011;1372;47.956;7.830;2022-07-23T03:03:32;10.17;;;9.20;;
2728;SDS011;1372;47.956;7.830;2022-07-23T03:06:01;9.53;;;8.60;;
2728;SDS011;1372;47.956;7.830;2022-07-23T03:08:32;8.97;;;8.17;;
2728;SDS011;1372;47.956;7.830;2022-07-23T03:11:01;9.17;;;8.37;;
2728;SDS011;1372;47.956;7.830;2022-07-23T03:13:29;9.60;;;8.70;;
2728;SDS011;1372;47.956;7.830;2022-07-23T03:16:02;9.63;;;8.63;;
2728;SDS011;1372;47.956;7.830;2022-07-23T03:18:33;10.03;;;9.13;;
2728;SDS011;1372;47.956;7.830;2022-07-23T03:21:07;9.57;;;8.77;;
2728;SDS011;1372;47.956;7.830;2022-07-23T03:23:36;9.20;;;8.43;;
2728;SDS011;1372;47.956;7.830;2022-07-23T03:26:05;9.47;;;8.67;;
2728;SDS011;1372;47.956;7.830;2022-07-23T03:28:36;9.73;;;9.03;;
2728;SDS011;1372;47.956;7.830;2022-07-23T03:31:06;9.53;;;8.70;;
2728;SDS011;1372;47.956;7.830;2022-07-23T03:33:36;9.90;;;9.00;;
2728;SDS011;1372;47.956;7.830;2022-07-23T03:36:04;9.37;;;8.00;;
2728;SDS011;1372;47.956;7.830;2022-07-23T03:38:34;9.30;;;8.40;;
2728;SDS011;1372;47.956;7.830;2022-07-23T03:41:03;9.83;;;8.97;;
2728;SDS011;1372;47.956;7.830;2022-07-23T03:43:32;9.30;;;8.47;;
2728;SDS011;1372;47.956;7.830;2022-07-23T03:46:22;9.30;;;8.50;;
2728;SDS011;1372;47.956;7.830;2022-07-23T03:48:51;8.80;;;8.00;;
2728;SDS011;1372;47.956;7.830;2022-07-23T03:51:26;9.77;;;8.97;;
2728;SDS011;1372;47.956;7.830;2022-07-23T03:53:55;8.73;;;7.60;;
2728;SDS011;1372;47.956;7.830;2022-07-23T03:56:24;9.00;;;8.27;;
2728;SDS011;1372;47.956;7.830;2022-07-23T03:59:13;8.90;;;8.20;;
2728;SDS011;1372;47.956;7.830;2022-07-23T04:01:49;10.07;;;9.23;;
2728;SDS011;1372;47.956;7.830;2022-07-23T04:04:19;8.43;;;7.70;;
2728;SDS011;1372;47.956;7.830;2022-07-23T04:07:07;8.70;;;8.00;;
2728;SDS011;1372;47.956;7.830;2022-07-23T04:09:35;9.87;;;8.97;;
2728;SDS011;1372;47.956;7.830;2022-07-23T04:12:05;10.77;;;9.77;;
2728;SDS011;1372;47.956;7.830;2022-07-23T04:14:35;9.23;;;8.43;;
2728;SDS011;1372;47.956;7.830;2022-07-23T04:17:05;9.83;;;9.00;;
2728;SDS011;1372;47.956;7.830;2022-07-23T04:19:34;9.10;;;8.30;;
2728;SDS011;1372;47.956;7.830;2022-07-23T04:22:06;9.07;;;8.27;;
2728;SDS011;1372;47.956;7.830;2022-07-23T04:24:35;9.23;;;8.43;;
2728;SDS011;1372;47.956;7.830;2022-07-23T04:27:04;9.50;;;8.60;;
2728;SDS011;1372;47.956;7.830;2022-07-23T04:29:33;9.90;;;9.00;;
2728;SDS011;1372;47.956;7.830;2022-07-23T04:32:02;9.77;;;8.83;;
2728;SDS011;1372;47.956;7.830;2022-07-23T04:34:33;9.50;;;8.80;;
2728;SDS011;1372;47.956;7.830;2022-07-23T04:37:02;8.77;;;8.07;;
2728;SDS011;1372;47.956;7.830;2022-07-23T04:39:31;8.77;;;8.07;;
2728;SDS011;1372;47.956;7.830;2022-07-23T04:42:19;9.40;;;8.60;;
2728;SDS011;1372;47.956;7.830;2022-07-23T04:44:48;10.10;;;9.20;;
2728;SDS011;1372;47.956;7.830;2022-07-23T04:47:36;9.00;;;8.30;;
2728;SDS011;1372;47.956;7.830;2022-07-23T04:50:06;9.43;;;8.63;;
2728;SDS011;1372;47.956;7.830;2022-07-23T04:52:37;8.53;;;7.83;;
2728;SDS011;1372;47.956;7.830;2022-07-23T04:55:21;8.73;;;7.93;;
2728;SDS011;1372;47.956;7.830;2022-07-23T04:57:49;9.97;;;9.07;;
2728;SDS011;1372;47.956;7.830;2022-07-23T05:00:18;9.33;;;8.53;;
2728;SDS011;1372;47.956;7.830;2022-07-23T05:02:47;9.67;;;8.77;;
2728;SDS011;1372;47.956;7.830;2022-07-23T05:05:17;10.17;;;9.27;;
2728;SDS011;1372;47.956;7.830;2022-07-23T05:08:01;9.70;;;8.70;;
2728;SDS011;1372;47.956;7.830;2022-07-23T05:10:30;9.50;;;8.60;;
2728;SDS011;1372;47.956;7.830;2022-07-23T05:12:59;9.90;;;9.00;;
2728;SDS011;1372;47.956;7.830;2022-07-23T05:15:28;9.63;;;8.73;;
2728;SDS011;1372;47.956;7.830;2022-07-23T05:17:59;9.43;;;8.03;;
2728;SDS011;1372;47.956;7.830;2022-07-23T05:20:49;9.23;;;8.43;;
2728;SDS011;1372;47.956;7.830;2022-07-23T05:23:19;9.37;;;8.47;;
2728;SDS011;1372;47.956;7.830;2022-07-23T05:25:48;9.50;;;8.70;;
2728;SDS011;1372;47.956;7.830;2022-07-23T05:28:17;8.70;;;8.00;;
2728;SDS011;1372;47.956;7.830;2022-07-23T05:30:48;9.60;;;8.70;;
2728;SDS011;1372;47.956;7.830;2022-07-23T05:33:36;10.40;;;9.40;;
2728;SDS011;1372;47.956;7.830;2022-07-23T05:36:07;8.80;;;8.10;;
2728;SDS011;1372;47.956;7.830;2022-07-23T05:38:38;9.70;;;8.80;;
2728;SDS011;1372;47.956;7.830;2022-07-23T05:41:08;10.03;;;8.90;;
2728;SDS011;1372;47.956;7.830;2022-07-23T05:43:56;10.00;;;9.10;;
2728;SDS011;1372;47.956;7.830;2022-07-23T05:46:45;8.43;;;7.73;;
2728;SDS011;1372;47.956;7.830;2022-07-23T05:49:13;8.80;;;8.03;;
2728;SDS011;1372;47.956;7.830;2022-07-23T05:51:44;9.67;;;8.80;;
2728;SDS011;1372;47.956;7.830;2022-07-23T05:54:13;9.30;;;8.50;;
2728;SDS011;1372;47.956;7.830;2022-07-23T05:56:41;9.67;;;8.87;;
2728;SDS011;1372;47.956;7.830;2022-07-23T05:59:30;9.67;;;8.90;;
2728;SDS011;1372;47.956;7.830;2022-07-23T06:01:59;9.00;;;8.30;;
2728;SDS011;1372;47.956;7.830;2022-07-23T06:04:28;9.30;;;8.50;;
2728;SDS011;1372;47.956;7.830;2022-07-23T06:06:58;9.40;;;8.50;;
2728;SDS011;1372;47.956;7.830;2022-07-23T06:09:27;8.97;;;8.17;;
2728;SDS011;1372;47.956;7.830;2022-07-23T06:11:56;8.63;;;7.93;;
2728;SDS011;1372;47.956;7.830;2022-07-23T06:14:27;9.20;;;8.40;;
2728;SDS011;1372;47.956;7.830;2022-07-23T06:16:56;9.80;;;8.97;;
2728;SDS011;1372;47.956;7.830;2022-07-23T06:19:26;9.33;;;8.53;;
2728;SDS011;1372;47.956;7.830;2022-07-23T06:21:55;8.40;;;7.40;;
2728;SDS011;1372;47.956;7.830;2022-07-23T06:24:25;9.50;;;8.70;;
2728;SDS011;1372;47.956;7.830;2022-07-23T06:27:13;8.43;;;7.73;;
2728;SDS011;1372;47.956;7.830;2022-07-23T06:30:05;9.13;;;8.40;;
2728;SDS011;1372;47.956;7.830;2022-07-23T06:32:37;8.83;;;8.13;;
2728;SDS011;1372;47.956;7.830;2022-07-23T06:35:06;8.93;;;8.13;;
2728;SDS011;1372;47.956;7.830;2022-07-23T06:37:37;8.80;;;8.00;;
2728;SDS011;1372;47.956;7.830;2022-07-23T06:40:08;8.43;;;7.70;;
2728;SDS011;1372;47.956;7.830;2022-07-23T06:42:39;9.30;;;8.60;;
2728;SDS011;1372;47.956;7.830;2022-07-23T06:45:10;10.30;;;9.40;;
2728;SDS011;1372;47.956;7.830;2022-07-23T06:48:00;10.53;;;9.53;;
2728;SDS011;1372;47.956;7.830;2022-07-23T06:50:31;8.90;;;8.20;;
2728;SDS011;1372;47.956;7.830;2022-07-23T06:53:20;9.47;;;8.57;;
2728;SDS011;1372;47.956;7.830;2022-07-23T06:55:50;9.33;;;8.53;;
2728;SDS011;1372;47.956;7.830;2022-07-23T06:58:19;9.70;;;8.90;;
2728;SDS011;1372;47.956;7.830;2022-07-23T07:00:50;8.63;;;7.83;;
2728;SDS011;1372;47.956;7.830;2022-07-23T07:03:19;10.00;;;9.00;;
2728;SDS011;1372;47.956;7.830;2022-07-23T07:05:48;8.03;;;7.43;;
2728;SDS011;1372;47.956;7.830;2022-07-23T07:08:17;9.80;;;9.00;;
2728;SDS011;1372;47.956;7.830;2022-07-23T07:10:45;9.23;;;8.43;;
2728;SDS011;1372;47.956;7.830;2022-07-23T07:13:16;10.40;;;9.30;;
2728;SDS011;1372;47.956;7.830;2022-07-23T07:15:44;9.97;;;9.07;;
2728;SDS011;1372;47.956;7.830;2022-07-23T07:18:13;9.57;;;8.70;;
2728;SDS011;1372;47.956;7.830;2022-07-23T07:21:02;9.67;;;8.93;;
2728;SDS011;1372;47.956;7.830;2022-07-23T07:23:30;9.40;;;8.57;;
2728;SDS011;1372;47.956;7.830;2022-07-23T07:26:19;9.80;;;9.00;;
2728;SDS011;1372;47.956;7.830;2022-07-23T07:28:49;9.60;;;8.80;;
2728;SDS011;1372;47.956;7.830;2022-07-23T07:31:18;9.70;;;8.70;;
2728;SDS011;1372;47.956;7.830;2022-07-23T07:33:47;9.73;;;8.93;;
2728;SDS011;1372;47.956;7.830;2022-07-23T07:36:35;11.10;;;10.10;;
2728;SDS011;1372;47.956;7.830;2022-07-23T07:39:04;9.80;;;8.90;;
2728;SDS011;1372;47.956;7.830;2022-07-23T07:41:33;10.50;;;9.60;;
2728;SDS011;1372;47.956;7.830;2022-07-23T07:44:03;9.60;;;8.77;;
2728;SDS011;1372;47.956;7.830;2022-07-23T07:46:33;10.80;;;9.80;;
2728;SDS011;1372;47.956;7.830;2022-07-23T07:49:02;11.00;;;10.10;;
2728;SDS011;1372;47.956;7.830;2022-07-23T07:51:31;10.57;;;9.63;;
2728;SDS011;1372;47.956;7.830;2022-07-23T07:54:00;10.33;;;9.37;;
2728;SDS011;1372;47.956;7.830;2022-07-23T07:56:30;10.87;;;9.87;;
2728;SDS011;1372;47.956;7.830;2022-07-23T07:58:58;11.17;;;10.30;;
2728;SDS011;1372;47.956;7.830;2022-07-23T08:01:31;9.87;;;9.00;;
2728;SDS011;1372;47.956;7.830;2022-07-23T08:04:02;9.50;;;8.70;;
2728;SDS011;1372;47.956;7.830;2022-07-23T08:06:51;9.60;;;8.70;;
2728;SDS011;1372;47.956;7.830;2022-07-23T08:09:20;10.10;;;9.30;;
2728;SDS011;1372;47.956;7.830;2022-07-23T08:11:48;9.80;;;8.90;;
2728;SDS011;1372;47.956;7.830;2022-07-23T08:14:46;9.90;;;9.10;;
2728;SDS011;1372;47.956;7.830;2022-07-23T08:17:21;10.83;;;9.83;;
2728;SDS011;1372;47.956;7.830;2022-07-23T08:19:50;10.93;;;9.40;;
2728;SDS011;1372;47.956;7.830;2022-07-23T08:22:21;10.10;;;9.23;;
2728;SDS011;1372;47.956;7.830;2022-07-23T08:24:49;9.07;;;8.27;;
2728;SDS011;1372;47.956;7.830;2022-07-23T08:27:18;10.43;;;9.30;;
2728;SDS011;1372;47.956;7.830;2022-07-23T08:30:06;9.50;;;8.70;;
2728;SDS011;1372;47.956;7.830;2022-07-23T08:32:54;9.30;;;8.47;;
2728;SDS011;1372;47.956;7.830;2022-07-23T08:35:29;10.00;;;9.10;;
2728;SDS011;1372;47.956;7.830;2022-07-23T08:38:00;9.13;;;8.43;;
2728;SDS011;1372;47.956;7.830;2022-07-23T08:40:52;9.37;;;8.57;;
2728;SDS011;1372;47.956;7.830;2022-07-23T08:43:24;8.93;;;8.23;;
2728;SDS011;1372;47.956;7.830;2022-07-23T08:45:56;9.63;;;8.83;;
2728;SDS011;1372;47.956;7.830;2022-07-23T08:48:32;9.47;;;8.63;;
2728;SDS011;1372;47.956;7.830;2022-07-23T08:51:03;8.90;;;8.13;;
2728;SDS011;1372;47.956;7.830;2022-07-23T08:53:34;9.30;;;8.50;;
2728;SDS011;1372;47.956;7.830;2022-07-23T08:56:04;10.00;;;9.20;;
2728;SDS011;1372;47.956;7.830;2022-07-23T08:58:34;10.20;;;9.30;;
2728;SDS011;1372;47.956;7.830;2022-07-23T09:01:03;10.13;;;9.23;;
2728;SDS011;1372;47.956;7.830;2022-07-23T09:03:36;10.87;;;9.87;;
2728;SDS011;1372;47.956;7.830;2022-07-23T09:06:06;9.73;;;8.90;;
2728;SDS011;1372;47.956;7.830;2022-07-23T09:08:36;10.10;;;9.30;;
2728;SDS011;1372;47.956;7.830;2022-07-23T09:11:25;10.57;;;9.57;;
2728;SDS011;1372;47.956;7.830;2022-07-23T09:14:14;10.03;;;9.20;;
2728;SDS011;1372;47.956;7.830;2022-07-23T09:16:42;9.60;;;8.80;;
2728;SDS011;1372;47.956;7.830;2022-07-23T09:19:13;9.10;;;8.20;;
2728;SDS011;1372;47.956;7.830;2022-07-23T09:21:42;8.77;;;7.93;;
2728;SDS011;1372;47.956;7.830;2022-07-23T09:24:11;9.20;;;8.40;;
2728;SDS011;1372;47.956;7.830;2022-07-23T09:26:43;8.90;;;8.10;;
2728;SDS011;1372;47.956;7.830;2022-07-23T09:29:33;7.80;;;7.20;;
2728;SDS011;1372;47.956;7.830;2022-07-23T09:32:02;8.10;;;7.50;;
2728;SDS011;1372;47.956;7.830;2022-07-23T09:34:36;7.80;;;7.20;;
2728;SDS011;1372;47.956;7.830;2022-07-23T09:37:08;8.80;;;8.10;;
2728;SDS011;1372;47.956;7.830;2022-07-23T09:39:42;9.57;;;8.80;;
2728;SDS011;1372;47.956;7.830;2022-07-23T09:42:13;8.20;;;7.50;;
2728;SDS011;1372;47.956;7.830;2022-07-23T09:44:43;8.47;;;7.67;;
2728;SDS011;1372;47.956;7.830;2022-07-23T09:47:15;9.53;;;8.63;;
2728;SDS011;1372;47.956;7.830;2022-07-23T09:49:58;8.50;;;7.80;;
2728;SDS011;1372;47.956;7.830;2022-07-23T09:52:34;9.30;;;8.47;;
2728;SDS011;1372;47.956;7.830;2022-07-23T09:55:10;9.17;;;8.37;;
2728;SDS011;1372;47.956;7.830;2022-07-23T09:57:55;7.87;;;7.27;;
2728;SDS011;1372;47.956;7.830;2022-07-23T10:00:25;8.50;;;7.70;;
2728;SDS011;1372;47.956;7.830;2022-07-23T10:03:13;9.60;;;8.80;;
2728;SDS011;1372;47.956;7.830;2022-07-23T10:05:44;9.20;;;8.40;;
2728;SDS011;1372;47.956;7.830;2022-07-23T10:08:16;9.30;;;8.60;;
2728;SDS011;1372;47.956;7.830;2022-07-23T10:10:46;9.67;;;8.87;;
2728;SDS011;1372;47.956;7.830;2022-07-23T10:13:15;9.37;;;8.67;;
2728;SDS011;1372;47.956;7.830;2022-07-23T10:16:04;9.10;;;8.40;;
2728;SDS011;1372;47.956;7.830;2022-07-23T10:18:35;8.40;;;7.80;;
2728;SDS011;1372;47.956;7.830;2022-07-23T10:21:15;8.47;;;7.87;;
2728;SDS011;1372;47.956;7.830;2022-07-23T10:23:51;8.93;;;8.30;;
2728;SDS011;1372;47.956;7.830;2022-07-23T10:26:35;7.87;;;7.23;;
2728;SDS011;1372;47.956;7.830;2022-07-23T10:29:19;9.00;;;8.30;;
2728;SDS011;1372;47.956;7.830;2022-07-23T10:32:26;10.00;;;9.20;;
2728;SDS011;1372;47.956;7.830;2022-07-23T10:35:26;10.03;;;9.23;;
2728;SDS011;1372;47.956;7.830;2022-07-23T10:38:27;13.50;;;12.40;;
2728;SDS011;1372;47.956;7.830;2022-07-23T10:40:59;10.07;;;9.20;;
2728;SDS011;1372;47.956;7.830;2022-07-23T10:43:29;9.73;;;8.93;;
2728;SDS011;1372;47.956;7.830;2022-07-23T10:54:55;11.30;;;10.30;;
2728;SDS011;1372;47.956;7.830;2022-07-23T10:58:03;12.23;;;11.23;;
2728;SDS011;1372;47.956;7.830;2022-07-23T11:00:33;10.27;;;9.47;;
2728;SDS011;1372;47.956;7.830;2022-07-23T11:03:04;12.70;;;11.57;;
2728;SDS011;1372;47.956;7.830;2022-07-23T11:06:01;10.60;;;9.73;;
2728;SDS011;1372;47.956;7.830;2022-07-23T11:08:31;11.10;;;10.10;;
2728;SDS011;1372;47.956;7.830;2022-07-23T11:11:11;12.70;;;11.70;;
2728;SDS011;1372;47.956;7.830;2022-07-23T11:13:41;11.10;;;10.20;;
2728;SDS011;1372;47.956;7.830;2022-07-23T11:16:38;14.20;;;11.00;;
2728;SDS011;1372;47.956;7.830;2022-07-23T11:19:15;11.07;;;10.07;;
2728;SDS011;1372;47.956;7.830;2022-07-23T11:21:45;12.10;;;11.10;;
2728;SDS011;1372;47.956;7.830;2022-07-23T11:24:20;11.90;;;10.90;;
2728;SDS011;1372;47.956;7.830;2022-07-23T11:27:13;10.90;;;10.10;;
2728;SDS011;1372;47.956;7.830;2022-07-23T11:29:45;11.17;;;10.23;;
2728;SDS011;1372;47.956;7.830;2022-07-23T11:35:28;11.87;;;10.97;;
2728;SDS011;1372;47.956;7.830;2022-07-23T11:38:04;12.17;;;11.03;;
2728;SDS011;1372;47.956;7.830;2022-07-23T11:40:35;10.97;;;10.07;;
2728;SDS011;1372;47.956;7.830;2022-07-23T11:43:07;11.17;;;10.17;;
2728;SDS011;1372;47.956;7.830;2022-07-23T11:45:58;10.20;;;9.30;;
2728;SDS011;1372;47.956;7.830;2022-07-23T11:48:28;11.47;;;10.37;;
2728;SDS011;1372;47.956;7.830;2022-07-23T11:51:06;11.07;;;10.10;;
2728;SDS011;1372;47.956;7.830;2022-07-23T11:53:37;10.73;;;9.87;;
2728;SDS011;1372;47.956;7.830;2022-07-23T11:56:07;9.93;;;9.13;;
2728;SDS011;1372;47.956;7.830;2022-07-23T11:58:40;10.57;;;9.77;;
2728;SDS011;1372;47.956;7.830;2022-07-23T12:01:55;10.80;;;9.90;;
2728;SDS011;1372;47.956;7.830;2022-07-23T12:04:33;11.03;;;10.13;;
2728;SDS011;1372;47.956;7.830;2022-07-23T12:10:00;10.00;;;9.20;;
2728;SDS011;1372;47.956;7.830;2022-07-23T12:12:36;11.43;;;10.53;;
2728;SDS011;1372;47.956;7.830;2022-07-23T12:15:08;10.27;;;9.47;;
2728;SDS011;1372;47.956;7.830;2022-07-23T12:17:38;11.60;;;10.60;;
2728;SDS011;1372;47.956;7.830;2022-07-23T12:20:17;11.50;;;10.50;;
2728;SDS011;1372;47.956;7.830;2022-07-23T12:23:09;10.60;;;9.80;;
2728;SDS011;1372;47.956;7.830;2022-07-23T12:28:40;11.20;;;10.20;;
2728;SDS011;1372;47.956;7.830;2022-07-23T12:31:17;11.00;;;10.10;;
2728;SDS011;1372;47.956;7.830;2022-07-23T12:33:54;10.70;;;9.90;;
2728;SDS011;1372;47.956;7.830;2022-07-23T12:37:14;10.33;;;9.50;;
2728;SDS011;1372;47.956;7.830;2022-07-23T12:39:29;10.60;;;9.70;;
2728;SDS011;1372;47.956;7.830;2022-07-23T12:41:58;10.23;;;9.47;;
2728;SDS011;1372;47.956;7.830;2022-07-23T12:44:27;9.17;;;8.57;;
2728;SDS011;1372;47.956;7.830;2022-07-23T12:46:57;9.60;;;8.80;;
2728;SDS011;1372;47.956;7.830;2022-07-23T12:49:26;9.80;;;9.00;;
2728;SDS011;1372;47.956;7.830;2022-07-23T12:51:59;9.60;;;8.90;;
2728;SDS011;1372;47.956;7.830;2022-07-23T12:54:28;9.80;;;9.10;;
2728;SDS011;1372;47.956;7.830;2022-07-23T12:56:57;9.77;;;9.07;;
2728;SDS011;1372;47.956;7.830;2022-07-23T12:59:26;9.50;;;8.70;;
2728;SDS011;1372;47.956;7.830;2022-07-23T13:02:00;9.80;;;9.10;;
2728;SDS011;1372;47.956;7.830;2022-07-23T13:04:49;10.13;;;9.23;;
2728;SDS011;1372;47.956;7.830;2022-07-23T13:07:17;10.13;;;9.33;;
2728;SDS011;1372;47.956;7.830;2022-07-23T13:09:46;9.83;;;9.03;;
2728;SDS011;1372;47.956;7.830;2022-07-23T13:12:17;9.80;;;9.10;;
2728;SDS011;1372;47.956;7.830;2022-07-23T13:14:46;10.53;;;9.63;;
2728;SDS011;1372;47.956;7.830;2022-07-23T13:17:19;9.50;;;8.80;;
2728;SDS011;1372;47.956;7.830;2022-07-23T13:20:08;9.53;;;8.83;;
2728;SDS011;1372;47.956;7.830;2022-07-23T13:22:41;9.97;;;9.17;;
2728;SDS011;1372;47.956;7.830;2022-07-23T13:28:04;10.87;;;10.07;;
2728;SDS011;1372;47.956;7.830;2022-07-23T13:30:43;10.60;;;9.70;;
2728;SDS011;1372;47.956;7.830;2022-07-23T13:33:16;10.17;;;9.40;;
2728;SDS011;1372;47.956;7.830;2022-07-23T13:35:46;10.00;;;9.10;;
2728;SDS011;1372;47.956;7.830;2022-07-23T13:38:17;9.77;;;8.97;;
2728;SDS011;1372;47.956;7.830;2022-07-23T13:40:47;10.67;;;9.77;;
2728;SDS011;1372;47.956;7.830;2022-07-23T13:43:21;10.57;;;9.80;;
2728;SDS011;1372;47.956;7.830;2022-07-23T13:45:55;9.17;;;8.43;;
2728;SDS011;1372;47.956;7.830;2022-07-23T13:48:25;10.70;;;9.80;;
2728;SDS011;1372;47.956;7.830;2022-07-23T13:50:55;10.70;;;9.70;;
2728;SDS011;1372;47.956;7.830;2022-07-23T13:53:25;10.67;;;9.77;;
2728;SDS011;1372;47.956;7.830;2022-07-23T13:55:54;8.53;;;7.93;;
2728;SDS011;1372;47.956;7.830;2022-07-23T13:58:43;9.83;;;9.03;;
2728;SDS011;1372;47.956;7.830;2022-07-23T14:01:14;9.87;;;9.17;;
2728;SDS011;1372;47.956;7.830;2022-07-23T14:04:25;9.93;;;9.13;;
2728;SDS011;1372;47.956;7.830;2022-07-23T14:07:01;9.00;;;8.40;;
2728;SDS011;1372;47.956;7.830;2022-07-23T14:09:36;9.37;;;8.67;;
2728;SDS011;1372;47.956;7.830;2022-07-23T14:12:05;9.27;;;8.57;;
2728;SDS011;1372;47.956;7.830;2022-07-23T14:14:43;10.50;;;9.60;;
2728;SDS011;1372;47.956;7.830;2022-07-23T14:17:12;9.40;;;8.70;;
2728;SDS011;1372;47.956;7.830;2022-07-23T14:19:42;10.03;;;9.10;;
2728;SDS011;1372;47.956;7.830;2022-07-23T14:22:14;8.87;;;8.27;;
2728;SDS011;1372;47.956;7.830;2022-07-23T14:24:45;9.03;;;8.43;;
2728;SDS011;1372;47.956;7.830;2022-07-23T14:27:21;10.00;;;9.10;;
2728;SDS011;1372;47.956;7.830;2022-07-23T14:30:10;8.37;;;7.77;;
2728;SDS011;1372;47.956;7.830;2022-07-23T14:32:39;9.57;;;8.77;;
2728;SDS011;1372;47.956;7.830;2022-07-23T14:35:11;9.40;;;8.60;;
2728;SDS011;1372;47.956;7.830;2022-07-23T14:37:39;9.20;;;8.50;;
2728;SDS011;1372;47.956;7.830;2022-07-23T14:40:28;10.30;;;9.50;;
2728;SDS011;1372;47.956;7.830;2022-07-23T14:43:17;10.00;;;9.20;;
2728;SDS011;1372;47.956;7.830;2022-07-23T14:46:05;9.50;;;8.80;;
2728;SDS011;1372;47.956;7.830;2022-07-23T14:48:34;9.50;;;8.80;;
2728;SDS011;1372;47.956;7.830;2022-07-23T14:51:06;9.90;;;9.10;;
2728;SDS011;1372;47.956;7.830;2022-07-23T14:53:35;10.20;;;9.40;;
2728;SDS011;1372;47.956;7.830;2022-07-23T14:56:24;9.67;;;8.97;;
2728;SDS011;1372;47.956;7.830;2022-07-23T14:59:12;9.70;;;8.90;;
2728;SDS011;1372;47.956;7.830;2022-07-23T15:01:44;8.90;;;8.10;;
2728;SDS011;1372;47.956;7.830;2022-07-23T15:04:13;10.40;;;9.30;;
2728;SDS011;1372;47.956;7.830;2022-07-23T15:07:03;9.90;;;9.10;;
2728;SDS011;1372;47.956;7.830;2022-07-23T15:09:34;9.50;;;8.80;;
2728;SDS011;1372;47.956;7.830;2022-07-23T15:12:03;9.70;;;8.93;;
2728;SDS011;1372;47.956;7.830;2022-07-23T15:14:33;10.67;;;9.77;;
2728;SDS011;1372;47.956;7.830;2022-07-23T15:17:04;9.77;;;9.07;;
2728;SDS011;1372;47.956;7.830;2022-07-23T15:19:38;9.60;;;8.90;;
2728;SDS011;1372;47.956;7.830;2022-07-23T15:22:40;10.43;;;9.53;;
2728;SDS011;1372;47.956;7.830;2022-07-23T15:25:09;10.13;;;9.43;;
2728;SDS011;1372;47.956;7.830;2022-07-23T15:28:05;10.40;;;9.60;;
2728;SDS011;1372;47.956;7.830;2022-07-23T15:33:28;10.47;;;9.67;;
2728;SDS011;1372;47.956;7.830;2022-07-23T15:35:58;10.20;;;9.40;;
2728;SDS011;1372;47.956;7.830;2022-07-23T15:38:29;10.07;;;9.30;;
2728;SDS011;1372;47.956;7.830;2022-07-23T15:41:17;10.20;;;9.40;;
2728;SDS011;1372;47.956;7.830;2022-07-23T15:43:46;9.67;;;8.80;;
2728;SDS011;1372;47.956;7.830;2022-07-23T15:46:22;10.17;;;9.47;;
2728;SDS011;1372;47.956;7.830;2022-07-23T15:48:55;9.00;;;8.30;;
2728;SDS011;1372;47.956;7.830;2022-07-23T15:51:24;9.20;;;8.40;;
2728;SDS011;1372;47.956;7.830;2022-07-23T15:54:14;8.47;;;7.77;;
2728;SDS011;1372;47.956;7.830;2022-07-23T15:56:43;9.60;;;8.90;;
2728;SDS011;1372;47.956;7.830;2022-07-23T15:59:12;8.67;;;8.07;;
2728;SDS011;1372;47.956;7.830;2022-07-23T16:02:00;8.73;;;8.03;;
2728;SDS011;1372;47.956;7.830;2022-07-23T16:04:29;8.87;;;8.23;;
2728;SDS011;1372;47.956;7.830;2022-07-23T16:09:54;9.00;;;8.30;;
2728;SDS011;1372;47.956;7.830;2022-07-23T16:12:23;9.07;;;8.37;;
2728;SDS011;1372;47.956;7.830;2022-07-23T16:14:52;9.30;;;8.60;;
2728;SDS011;1372;47.956;7.830;2022-07-23T16:17:22;9.40;;;8.60;;
2728;SDS011;1372;47.956;7.830;2022-07-23T16:22:39;8.67;;;8.00;;